Time;durP1;ratioP1;P1;durP2;ratioP2;P2;SDS_P1;SDS_P2;PMS_P1;PMS_P2;Temp;Humidity;BMP_temperature;BMP_pressure;BME280_temperature;BME280_humidity;BME280_pressure;Samples;Min_cycle;Max_cycle;Signal;HPM_P1;HPM_P2
2021/10/06 00:01:39;;;;;;;6.00;5.70;;;12.20;99.90;;;;;;5060470;28;20175;-61
2021/10/06 00:04:05;;;;;;;6.47;5.87;;;12.20;99.90;;;;;;5051835;28;20199;-62
2021/10/06 00:06:31;;;;;;;6.10;5.60;;;12.20;99.90;;;;;;5061177;28;20182;-61
2021/10/06 00:08:57;;;;;;;5.83;5.33;;;12.20;99.90;;;;;;5072245;28;20178;-62
2021/10/06 00:11:23;;;;;;;6.10;5.60;;;12.20;99.90;;;;;;5064752;28;20182;-63
2021/10/06 00:13:50;;;;;;;6.27;5.67;;;12.20;99.90;;;;;;5052282;28;20203;-63
2021/10/06 00:16:16;;;;;;;6.83;5.63;;;12.20;99.90;;;;;;5057794;28;20667;-63
2021/10/06 00:18:42;;;;;;;6.73;6.17;;;12.10;99.90;;;;;;5072196;28;20170;-63
2021/10/06 00:21:07;;;;;;;6.63;5.53;;;12.10;99.90;;;;;;5067655;28;20557;-63
2021/10/06 00:23:33;;;;;;;6.93;6.20;;;12.00;99.90;;;;;;5052442;28;20175;-63
2021/10/06 00:26:00;;;;;;;7.40;6.63;;;12.00;99.90;;;;;;5072202;28;20194;-63
2021/10/06 00:28:27;;;;;;;7.63;6.83;;;11.90;99.90;;;;;;5072073;28;20287;-62
2021/10/06 00:30:53;;;;;;;6.27;5.80;;;11.90;99.90;;;;;;5062185;28;20189;-62
2021/10/06 00:33:19;;;;;;;6.10;5.70;;;11.80;99.90;;;;;;5072008;28;20210;-62
2021/10/06 00:35:44;;;;;;;7.40;6.50;;;11.70;99.90;;;;;;5054318;28;20191;-63
2021/10/06 00:38:10;;;;;;;6.27;5.83;;;11.60;99.90;;;;;;5052016;28;20169;-62
2021/10/06 00:40:36;;;;;;;6.80;6.10;;;11.60;99.90;;;;;;5067083;28;20185;-62
2021/10/06 00:43:01;;;;;;;8.67;8.00;;;11.60;99.90;;;;;;5071581;28;20166;-62
2021/10/06 00:45:27;;;;;;;6.80;6.03;;;11.60;99.90;;;;;;5057668;28;20643;-62
2021/10/06 00:47:53;;;;;;;9.00;5.93;;;11.60;99.90;;;;;;5051877;28;20242;-62
2021/10/06 00:50:18;;;;;;;7.63;5.83;;;11.50;99.90;;;;;;5063402;28;20178;-62
2021/10/06 00:52:47;;;;;;;6.33;5.77;;;11.50;99.90;;;;;;5071732;28;20209;-63
2021/10/06 00:55:14;;;;;;;8.13;6.63;;;11.50;99.90;;;;;;5059766;28;20700;-63
2021/10/06 00:57:40;;;;;;;6.80;5.70;;;11.40;99.90;;;;;;5051815;28;20191;-62
2021/10/06 01:00:07;;;;;;;8.50;6.07;;;11.40;99.90;;;;;;5060520;28;20182;-63
2021/10/06 01:02:32;;;;;;;11.40;6.67;;;11.40;99.90;;;;;;5066611;28;20181;-64
2021/10/06 01:04:58;;;;;;;8.27;6.10;;;11.40;99.90;;;;;;5050093;28;20191;-62
2021/10/06 01:07:24;;;;;;;8.33;6.17;;;11.40;99.90;;;;;;5054572;28;20240;-61
2021/10/06 01:09:51;;;;;;;12.87;6.40;;;11.30;99.90;;;;;;5071449;28;20174;-62
2021/10/06 01:12:19;;;;;;;9.23;6.23;;;11.30;99.90;;;;;;5069739;28;20299;-62
2021/10/06 01:14:45;;;;;;;7.53;6.47;;;11.30;99.90;;;;;;5051446;28;20672;-63
2021/10/06 01:17:11;;;;;;;7.80;6.20;;;11.30;99.90;;;;;;5051448;28;20193;-63
2021/10/06 01:19:36;;;;;;;7.00;6.30;;;11.30;99.90;;;;;;5052357;28;20684;-62
2021/10/06 01:22:02;;;;;;;9.07;6.43;;;11.40;99.90;;;;;;5051488;28;20536;-62
2021/10/06 01:24:29;;;;;;;7.10;6.57;;;11.40;99.90;;;;;;5069539;28;20288;-62
2021/10/06 01:26:55;;;;;;;7.40;6.73;;;11.40;99.90;;;;;;5071352;28;20178;-63
2021/10/06 01:29:21;;;;;;;12.40;6.67;;;11.40;99.90;;;;;;5053913;28;20195;-62
2021/10/06 01:31:48;;;;;;;7.00;6.30;;;11.40;99.90;;;;;;5063641;28;20556;-62
2021/10/06 01:34:17;;;;;;;6.93;5.87;;;11.40;99.90;;;;;;5071422;28;20185;-63
2021/10/06 01:36:45;;;;;;;10.70;6.33;;;11.40;99.90;;;;;;5060221;28;20186;-62
2021/10/06 01:39:10;;;;;;;13.00;6.80;;;11.40;99.90;;;;;;5052266;28;20179;-62
2021/10/06 01:41:37;;;;;;;8.70;6.50;;;11.40;99.90;;;;;;5060867;28;20280;-61
2021/10/06 01:44:03;;;;;;;6.47;5.90;;;11.40;99.90;;;;;;5071336;28;20221;-62
2021/10/06 01:46:29;;;;;;;7.83;6.50;;;11.40;99.90;;;;;;5062953;28;20256;-63
2021/10/06 01:48:55;;;;;;;11.30;6.13;;;11.50;99.90;;;;;;5051162;28;20206;-63
2021/10/06 01:51:21;;;;;;;6.73;6.10;;;11.50;99.90;;;;;;5057408;28;20335;-62
2021/10/06 01:53:47;;;;;;;8.50;5.90;;;11.50;99.90;;;;;;5071005;28;20239;-63
2021/10/06 01:56:12;;;;;;;10.00;6.90;;;11.50;99.90;;;;;;5068509;28;20683;-63
2021/10/06 01:58:38;;;;;;;7.13;6.47;;;11.50;99.90;;;;;;5055241;28;20171;-62
2021/10/06 02:01:04;;;;;;;10.47;6.33;;;11.50;99.90;;;;;;5074471;28;20591;-63
2021/10/06 02:03:30;;;;;;;10.83;6.77;;;11.50;99.90;;;;;;5073740;28;20252;-63
2021/10/06 02:05:55;;;;;;;9.40;6.13;;;11.50;99.90;;;;;;5055904;28;20199;-63
2021/10/06 02:08:21;;;;;;;10.83;6.30;;;11.40;99.90;;;;;;5054867;28;20218;-62
2021/10/06 02:10:47;;;;;;;6.70;6.10;;;11.40;99.90;;;;;;5072403;28;20185;-68
2021/10/06 02:13:13;;;;;;;14.17;7.23;;;11.50;99.90;;;;;;5075986;28;20201;-66
2021/10/06 02:15:39;;;;;;;8.23;7.10;;;11.50;99.90;;;;;;5060859;28;20227;-69
2021/10/06 02:18:05;;;;;;;7.77;5.90;;;11.50;99.90;;;;;;5055869;28;20163;-69
2021/10/06 02:20:32;;;;;;;6.40;5.60;;;11.50;99.90;;;;;;5069086;28;20185;-63
2021/10/06 02:22:58;;;;;;;15.20;5.80;;;11.50;99.90;;;;;;5075773;28;20174;-65
2021/10/06 02:25:24;;;;;;;8.60;5.93;;;11.40;99.90;;;;;;5063275;28;20255;-67
2021/10/06 02:27:49;;;;;;;7.87;6.00;;;11.40;99.90;;;;;;5066811;28;20257;-67
2021/10/06 02:30:16;;;;;;;8.03;5.83;;;11.40;99.90;;;;;;5074994;28;20170;-70
2021/10/06 02:32:41;;;;;;;7.80;6.17;;;11.40;99.90;;;;;;5065747;28;20267;-68
2021/10/06 02:35:09;;;;;;;6.50;5.83;;;11.50;99.90;;;;;;5055288;28;20195;-67
2021/10/06 02:37:35;;;;;;;7.53;6.63;;;11.40;99.90;;;;;;5063124;28;20185;-65
2021/10/06 02:40:01;;;;;;;6.50;5.90;;;11.40;99.90;;;;;;5075049;28;20166;-66
2021/10/06 02:42:26;;;;;;;15.80;6.70;;;11.50;99.90;;;;;;5068962;28;20197;-66
2021/10/06 02:44:52;;;;;;;8.73;6.50;;;11.50;99.90;;;;;;5055258;28;20617;-65
2021/10/06 02:47:18;;;;;;;14.00;7.50;;;11.50;99.90;;;;;;5059739;28;20179;-68
2021/10/06 02:49:43;;;;;;;7.63;6.80;;;11.50;99.90;;;;;;5061413;28;20183;-68
2021/10/06 02:52:09;;;;;;;10.07;6.90;;;11.60;99.90;;;;;;5057631;28;20198;-67
2021/10/06 02:54:35;;;;;;;7.37;5.97;;;11.60;99.90;;;;;;5074972;28;20213;-68
2021/10/06 02:57:04;;;;;;;6.87;6.27;;;11.70;99.90;;;;;;5056103;28;20175;-68
2021/10/06 02:59:30;;;;;;;7.77;6.60;;;11.70;99.90;;;;;;5054795;28;20177;-69
2021/10/06 03:01:56;;;;;;;9.73;6.37;;;11.70;99.90;;;;;;5072501;28;20175;-64
2021/10/06 03:04:23;;;;;;;8.80;5.87;;;11.70;99.90;;;;;;5073963;28;20272;-65
2021/10/06 03:06:48;;;;;;;6.30;5.77;;;11.70;99.90;;;;;;5059061;28;20175;-65
2021/10/06 03:09:14;;;;;;;9.87;6.10;;;11.70;99.90;;;;;;5054344;28;20170;-65
2021/10/06 03:11:40;;;;;;;6.77;6.10;;;11.60;99.90;;;;;;5068938;28;20270;-66
2021/10/06 03:14:06;;;;;;;6.30;5.77;;;11.50;99.90;;;;;;5074529;28;20244;-65
2021/10/06 03:16:31;;;;;;;10.57;6.03;;;11.50;99.90;;;;;;5062471;28;20563;-68
2021/10/06 03:18:57;;;;;;;9.93;6.30;;;11.50;99.90;;;;;;5054476;28;20260;-65
2021/10/06 03:21:23;;;;;;;10.57;6.57;;;11.40;99.90;;;;;;5063614;28;20174;-67
2021/10/06 03:23:48;;;;;;;6.83;6.17;;;11.30;99.90;;;;;;5068608;28;20690;-67
2021/10/06 03:26:14;;;;;;;8.63;6.17;;;11.30;99.90;;;;;;5054806;28;20687;-68
2021/10/06 03:28:40;;;;;;;8.33;6.40;;;11.30;99.90;;;;;;5054934;28;20190;-64
2021/10/06 03:31:05;;;;;;;8.40;6.30;;;11.30;99.90;;;;;;5065053;28;20666;-65
2021/10/06 03:33:31;;;;;;;6.13;5.57;;;11.30;99.90;;;;;;5054410;28;20203;-66
2021/10/06 03:35:57;;;;;;;9.20;6.97;;;11.20;99.90;;;;;;5055500;28;20226;-66
2021/10/06 03:38:22;;;;;;;11.83;7.37;;;11.20;99.90;;;;;;5074418;28;20173;-66
2021/10/06 03:40:48;;;;;;;7.83;7.33;;;11.20;99.90;;;;;;5073864;28;20192;-68
2021/10/06 03:43:14;;;;;;;11.27;7.63;;;11.20;99.90;;;;;;5054541;28;20174;-67
2021/10/06 03:45:40;;;;;;;8.03;7.43;;;11.20;99.90;;;;;;5054359;28;20657;-68
2021/10/06 03:48:05;;;;;;;6.30;6.00;;;11.20;99.90;;;;;;5071619;28;20182;-66
2021/10/06 03:50:31;;;;;;;7.30;6.27;;;11.20;99.90;;;;;;5073312;28;20166;-64
2021/10/06 03:52:57;;;;;;;7.20;6.07;;;11.30;99.90;;;;;;5056311;28;20217;-64
2021/10/06 03:55:23;;;;;;;8.77;6.60;;;11.30;99.90;;;;;;5053072;28;20210;-63
2021/10/06 03:57:49;;;;;;;6.50;6.00;;;11.30;99.90;;;;;;5067009;28;20652;-64
2021/10/06 04:00:15;;;;;;;8.73;6.03;;;11.30;99.90;;;;;;5072357;28;20170;-64
2021/10/06 04:02:41;;;;;;;6.83;6.07;;;11.20;99.90;;;;;;5059622;28;20262;-63
2021/10/06 04:05:10;;;;;;;7.37;6.60;;;11.10;99.90;;;;;;5052026;28;20578;-64
2021/10/06 04:07:35;;;;;;;9.07;5.90;;;11.10;99.90;;;;;;5064074;28;20304;-64
2021/10/06 04:10:01;;;;;;;8.00;6.60;;;11.00;99.90;;;;;;5072183;28;20170;-63
2021/10/06 04:12:27;;;;;;;7.23;6.63;;;11.10;99.90;;;;;;5062236;28;20252;-64
2021/10/06 04:14:52;;;;;;;7.47;6.30;;;11.10;99.90;;;;;;5052407;28;20569;-64
2021/10/06 04:17:18;;;;;;;8.30;7.50;;;11.20;99.90;;;;;;5060084;28;20264;-64
2021/10/06 04:19:44;;;;;;;9.50;6.10;;;11.30;99.90;;;;;;5068086;28;20178;-64
2021/10/06 04:22:09;;;;;;;6.93;6.30;;;11.40;99.90;;;;;;5052272;28;20186;-64
2021/10/06 04:24:35;;;;;;;6.67;6.03;;;11.50;99.90;;;;;;5053692;28;20708;-64
2021/10/06 04:27:01;;;;;;;8.67;6.37;;;11.50;99.90;;;;;;5060397;28;20182;-64
2021/10/06 04:29:26;;;;;;;8.63;6.63;;;11.60;99.90;;;;;;5051910;28;20183;-64
2021/10/06 04:31:52;;;;;;;6.37;5.77;;;11.60;99.90;;;;;;5071778;28;20600;-62
2021/10/06 04:34:18;;;;;;;6.80;6.20;;;11.60;99.90;;;;;;5072070;28;20186;-64
2021/10/06 04:36:43;;;;;;;7.00;6.47;;;11.70;99.90;;;;;;5053683;28;20171;-62
2021/10/06 04:39:09;;;;;;;6.67;6.07;;;11.70;99.90;;;;;;5051602;28;20640;-64
2021/10/06 04:41:35;;;;;;;6.03;5.50;;;11.70;99.90;;;;;;5068278;28;20182;-62
2021/10/06 04:44:02;;;;;;;9.00;6.23;;;11.80;99.90;;;;;;5071908;28;20617;-63
2021/10/06 04:46:28;;;;;;;7.10;6.47;;;11.80;99.90;;;;;;5056787;28;20547;-64
2021/10/06 04:48:54;;;;;;;6.33;5.80;;;11.80;99.90;;;;;;5062278;28;20182;-64
2021/10/06 04:51:20;;;;;;;7.13;5.60;;;11.80;99.90;;;;;;5070158;28;20181;-64
2021/10/06 04:53:46;;;;;;;6.90;6.20;;;11.80;99.90;;;;;;5062658;28;20202;-62
2021/10/06 04:56:11;;;;;;;8.27;6.97;;;11.80;99.90;;;;;;5051788;28;20544;-64
2021/10/06 04:58:37;;;;;;;7.37;6.20;;;11.90;99.90;;;;;;5058531;28;20547;-64
2021/10/06 05:01:03;;;;;;;8.20;6.67;;;11.90;99.90;;;;;;5071334;28;20185;-65
2021/10/06 05:03:28;;;;;;;7.50;6.80;;;11.90;99.90;;;;;;5065161;28;20179;-65
2021/10/06 05:05:54;;;;;;;7.00;6.30;;;11.80;99.90;;;;;;5050968;28;20668;-64
2021/10/06 05:08:19;;;;;;;8.40;5.83;;;11.80;99.90;;;;;;5054943;28;20178;-64
2021/10/06 05:10:45;;;;;;;9.13;5.93;;;11.80;99.90;;;;;;5071377;28;20178;-64
2021/10/06 05:13:11;;;;;;;8.07;5.80;;;11.80;99.90;;;;;;5069376;28;20204;-64
2021/10/06 05:15:36;;;;;;;7.20;6.50;;;11.80;99.90;;;;;;5051459;28;20191;-64
2021/10/06 05:18:02;;;;;;;7.10;6.50;;;11.80;99.90;;;;;;5068709;28;20284;-64
2021/10/06 05:20:28;;;;;;;5.97;5.57;;;11.90;99.90;;;;;;5062575;28;20175;-64
2021/10/06 05:22:54;;;;;;;6.63;6.03;;;11.90;99.90;;;;;;5051496;28;20171;-64
2021/10/06 05:25:23;;;;;;;10.13;6.10;;;11.90;99.90;;;;;;5057901;28;20220;-64
2021/10/06 05:27:49;;;;;;;6.30;5.80;;;11.90;99.90;;;;;;5071547;28;20166;-62
2021/10/06 05:30:16;;;;;;;9.90;6.77;;;11.90;99.90;;;;;;5066515;28;20654;-64
2021/10/06 05:32:41;;;;;;;6.10;5.50;;;12.00;99.90;;;;;;5055611;28;20293;-62
2021/10/06 05:35:08;;;;;;;7.00;5.90;;;11.90;99.90;;;;;;5059191;28;20280;-64
2021/10/06 05:37:34;;;;;;;6.30;5.80;;;11.90;99.90;;;;;;5075557;28;20679;-65
2021/10/06 05:40:00;;;;;;;6.57;6.07;;;11.80;99.90;;;;;;5072736;28;20225;-63
2021/10/06 05:42:25;;;;;;;6.93;6.23;;;11.80;99.90;;;;;;5055385;28;20167;-64
2021/10/06 05:44:51;;;;;;;7.17;6.57;;;11.80;99.90;;;;;;5059177;28;20208;-64
2021/10/06 05:47:17;;;;;;;6.97;6.17;;;11.90;99.90;;;;;;5054999;28;20171;-64
2021/10/06 05:49:42;;;;;;;6.67;6.13;;;11.90;99.90;;;;;;5057836;28;20231;-64
2021/10/06 05:52:08;;;;;;;7.80;5.80;;;12.00;99.90;;;;;;5075330;28;20206;-62
2021/10/06 05:54:34;;;;;;;6.27;5.57;;;12.00;99.90;;;;;;5063503;28;20226;-64
2021/10/06 05:57:00;;;;;;;7.23;6.53;;;12.10;99.90;;;;;;5073872;28;20196;-63
2021/10/06 05:59:26;;;;;;;7.20;6.50;;;12.10;99.90;;;;;;5069468;28;20254;-64
2021/10/06 06:01:51;;;;;;;7.30;6.70;;;12.10;99.90;;;;;;5059759;28;20178;-62
2021/10/06 06:04:17;;;;;;;9.23;6.70;;;12.10;99.90;;;;;;5054854;28;20182;-62
2021/10/06 06:06:44;;;;;;;6.90;6.20;;;12.10;99.90;;;;;;5062151;28;20640;-63
2021/10/06 06:09:11;;;;;;;6.80;6.17;;;12.20;99.90;;;;;;5074440;28;20170;-64
2021/10/06 06:11:36;;;;;;;6.63;6.03;;;12.10;99.90;;;;;;5068811;28;20171;-64
2021/10/06 06:14:03;;;;;;;6.20;5.70;;;12.20;99.90;;;;;;5052628;28;20256;-63
2021/10/06 06:16:29;;;;;;;8.17;5.90;;;12.20;99.90;;;;;;5058702;28;20174;-63
2021/10/06 06:18:54;;;;;;;7.17;6.10;;;12.30;99.90;;;;;;5074696;28;20170;-65
2021/10/06 06:21:20;;;;;;;9.07;6.17;;;12.30;99.90;;;;;;5072335;28;20174;-63
2021/10/06 06:23:47;;;;;;;8.53;5.87;;;12.40;99.90;;;;;;5063103;28;20695;-64
2021/10/06 06:26:12;;;;;;;7.07;5.83;;;12.40;99.90;;;;;;5074559;28;20181;-64
2021/10/06 06:28:38;;;;;;;6.40;5.80;;;12.50;99.90;;;;;;5061471;28;20175;-63
2021/10/06 06:31:05;;;;;;;7.30;6.00;;;12.50;99.90;;;;;;5054049;28;20179;-63
2021/10/06 06:33:31;;;;;;;10.57;5.97;;;12.50;99.90;;;;;;5054269;28;20567;-62
2021/10/06 06:35:57;;;;;;;5.70;5.30;;;12.40;99.90;;;;;;5054223;28;20195;-62
2021/10/06 06:38:22;;;;;;;9.97;6.53;;;12.40;99.90;;;;;;5070602;28;20643;-65
2021/10/06 06:40:48;;;;;;;8.00;6.03;;;12.20;99.90;;;;;;5068066;28;20547;-64
2021/10/06 06:43:13;;;;;;;8.67;6.47;;;12.10;99.90;;;;;;5052724;28;20202;-64
2021/10/06 06:45:40;;;;;;;10.87;6.80;;;11.90;99.90;;;;;;5057365;28;20194;-63
2021/10/06 06:48:06;;;;;;;16.53;6.50;;;11.80;99.90;;;;;;5074039;28;20528;-64
2021/10/06 06:50:33;;;;;;;6.97;6.40;;;11.60;99.90;;;;;;5071527;28;20170;-63
2021/10/06 06:52:58;;;;;;;6.83;6.33;;;11.50;99.90;;;;;;5053882;28;20202;-63
2021/10/06 06:55:24;;;;;;;10.57;6.90;;;11.50;99.90;;;;;;5052780;28;20298;-63
2021/10/06 06:57:49;;;;;;;7.53;6.70;;;11.40;99.90;;;;;;5073818;28;20568;-62
2021/10/06 07:00:16;;;;;;;10.37;6.70;;;11.30;99.90;;;;;;5073488;28;20177;-64
2021/10/06 07:02:41;;;;;;;10.03;7.87;;;11.30;99.90;;;;;;5054963;28;20171;-63
2021/10/06 07:05:07;;;;;;;15.53;8.43;;;11.20;99.90;;;;;;5053476;28;20683;-64
2021/10/06 07:07:33;;;;;;;10.93;7.57;;;11.10;99.90;;;;;;5070538;28;20174;-63
2021/10/06 07:09:58;;;;;;;7.47;6.43;;;11.00;99.90;;;;;;5073472;28;20182;-64
2021/10/06 07:12:24;;;;;;;9.73;6.47;;;11.00;99.90;;;;;;5057924;28;20285;-63
2021/10/06 07:14:51;;;;;;;10.57;8.03;;;10.90;99.90;;;;;;5053598;28;20760;-63
2021/10/06 07:17:18;;;;;;;10.87;7.10;;;10.90;99.90;;;;;;5066888;28;20197;-64
2021/10/06 07:19:46;;;;;;;8.43;6.43;;;10.90;99.90;;;;;;5066703;28;20167;-63
2021/10/06 07:22:13;;;;;;;7.30;6.47;;;10.90;99.90;;;;;;5053395;28;20175;-63
2021/10/06 07:24:39;;;;;;;14.90;7.00;;;10.90;99.90;;;;;;5054508;28;20229;-64
2021/10/06 07:27:05;;;;;;;8.23;7.40;;;10.90;99.90;;;;;;5053284;28;20203;-63
2021/10/06 07:29:31;;;;;;;6.83;6.13;;;11.00;99.90;;;;;;5055356;28;20202;-63
2021/10/06 07:31:57;;;;;;;8.67;6.77;;;11.00;99.90;;;;;;5062851;28;20718;-64
2021/10/06 07:34:22;;;;;;;10.17;7.20;;;11.10;99.90;;;;;;5051716;28;20277;-63
2021/10/06 07:36:48;;;;;;;7.93;7.13;;;11.10;99.90;;;;;;5056677;28;20334;-64
2021/10/06 07:39:14;;;;;;;10.13;7.53;;;11.20;99.90;;;;;;5072680;28;20181;-64
2021/10/06 07:41:40;;;;;;;8.33;7.63;;;11.20;99.90;;;;;;5071034;28;20162;-63
2021/10/06 07:44:05;;;;;;;7.03;6.23;;;11.30;99.90;;;;;;5052985;28;20582;-64
2021/10/06 07:46:31;;;;;;;9.57;6.57;;;11.40;99.90;;;;;;5052899;28;20178;-65
2021/10/06 07:48:57;;;;;;;8.60;6.30;;;11.40;99.90;;;;;;5072682;28;20208;-64
2021/10/06 07:51:23;;;;;;;7.20;6.70;;;11.40;99.90;;;;;;5072500;28;20175;-64
2021/10/06 07:53:48;;;;;;;10.83;6.50;;;11.40;99.90;;;;;;5053496;28;20559;-64
2021/10/06 07:56:15;;;;;;;7.60;6.60;;;11.40;99.90;;;;;;5052752;28;20189;-64
2021/10/06 07:58:41;;;;;;;10.03;6.33;;;11.40;99.90;;;;;;5068930;28;20174;-65
2021/10/06 08:01:07;;;;;;;7.67;6.73;;;11.50;99.90;;;;;;5072172;28;20171;-62
2021/10/06 08:03:33;;;;;;;6.73;6.03;;;11.50;99.90;;;;;;5057630;28;20187;-64
2021/10/06 08:05:59;;;;;;;9.13;6.60;;;11.60;99.90;;;;;;5052600;28;20243;-64
2021/10/06 08:08:26;;;;;;;7.23;6.60;;;11.70;99.90;;;;;;5065107;28;20182;-63
2021/10/06 08:10:57;;;;;;;7.00;6.30;;;11.70;99.90;;;;;;5070863;28;20660;-63
2021/10/06 08:13:23;;;;;;;6.40;5.90;;;11.70;99.90;;;;;;5053839;28;20204;-63
2021/10/06 08:15:50;;;;;;;6.93;6.37;;;11.70;99.90;;;;;;5052395;28;20187;-63
2021/10/06 08:18:16;;;;;;;6.90;6.30;;;11.70;99.90;;;;;;5068500;28;20189;-63
2021/10/06 08:20:52;;;;;;;7.37;6.50;;;11.60;99.90;;;;;;5065465;28;20665;-61
2021/10/06 08:23:18;;;;;;;8.37;6.70;;;11.60;99.90;;;;;;5052127;28;20177;-62
2021/10/06 08:25:45;;;;;;;7.10;6.43;;;11.70;99.90;;;;;;5058095;28;20599;-62
2021/10/06 08:28:11;;;;;;;6.47;6.07;;;11.70;99.90;;;;;;5072087;28;20546;-63
2021/10/06 08:30:37;;;;;;;7.07;6.47;;;11.80;99.90;;;;;;5067312;28;20171;-64
2021/10/06 08:33:03;;;;;;;6.10;5.70;;;11.90;99.90;;;;;;5051994;28;20564;-64
2021/10/06 08:35:29;;;;;;;6.53;5.90;;;12.10;99.90;;;;;;5051748;28;20593;-64
2021/10/06 08:37:55;;;;;;;8.03;5.77;;;12.30;99.90;;;;;;5063385;28;20208;-64
2021/10/06 08:40:21;;;;;;;8.00;7.13;;;12.50;99.90;;;;;;5070568;28;20193;-66
2021/10/06 08:42:48;;;;;;;7.03;6.40;;;12.70;99.90;;;;;;5051984;28;20196;-64
2021/10/06 08:45:13;;;;;;;8.03;6.37;;;12.70;99.90;;;;;;5051609;28;20656;-65
2021/10/06 08:47:40;;;;;;;7.97;6.23;;;12.90;99.90;;;;;;5070943;28;20189;-64
2021/10/06 08:50:09;;;;;;;5.30;4.90;;;13.10;99.90;;;;;;5055906;28;20187;-62
2021/10/06 08:52:35;;;;;;;6.90;5.13;;;13.20;99.90;;;;;;5051755;28;20233;-64
2021/10/06 08:55:02;;;;;;;6.10;5.50;;;13.40;99.90;;;;;;5065728;28;20209;-65
2021/10/06 08:57:28;;;;;;;7.23;5.40;;;13.40;99.90;;;;;;5071528;28;20181;-64
2021/10/06 08:59:53;;;;;;;5.77;5.40;;;13.50;99.90;;;;;;5058727;28;20217;-63
2021/10/06 09:02:19;;;;;;;7.10;6.50;;;13.50;99.90;;;;;;5051473;28;20278;-63
2021/10/06 09:04:48;;;;;;;9.97;8.93;;;13.50;99.90;;;;;;5061862;28;20202;-63
2021/10/06 09:07:13;;;;;;;7.97;5.60;;;13.50;99.90;;;;;;5071488;28;20690;-63
2021/10/06 09:09:39;;;;;;;6.47;6.07;;;13.50;99.90;;;;;;5062068;28;20186;-63
2021/10/06 09:12:16;;;;;;;6.83;5.67;;;13.60;99.90;;;;;;5051488;28;20544;-63
2021/10/06 09:14:45;;;;;;;5.60;5.30;;;13.50;99.90;;;;;;5060257;28;20212;-63
2021/10/06 09:17:19;;;;;;;7.07;6.37;;;13.50;99.90;;;;;;5066212;28;20592;-63
2021/10/06 09:19:53;;;;;;;5.93;5.33;;;13.50;99.90;;;;;;5055418;28;20272;-65
2021/10/06 09:22:21;;;;;;;5.97;5.47;;;13.40;99.90;;;;;;5071493;28;20678;-64
2021/10/06 09:25:02;;;;;;;7.00;5.47;;;13.50;99.90;;;;;;5069716;28;20198;-64
2021/10/06 09:27:31;;;;;;;5.00;4.70;;;13.40;99.90;;;;;;5071278;28;20186;-65
2021/10/06 09:29:59;;;;;;;5.40;5.10;;;13.60;99.90;;;;;;5066341;28;20216;-64
2021/10/06 09:32:33;;;;;;;5.23;4.97;;;13.70;99.90;;;;;;5051098;28;20213;-65
2021/10/06 09:35:03;;;;;;;5.40;4.97;;;13.90;99.90;;;;;;5055371;28;20626;-63
2021/10/06 09:37:29;;;;;;;5.30;4.80;;;13.90;99.90;;;;;;5071103;28;20272;-63
2021/10/06 09:39:55;;;;;;;5.30;4.80;;;13.90;99.90;;;;;;5067839;28;20262;-62
2021/10/06 09:42:21;;;;;;;5.50;5.10;;;13.80;99.90;;;;;;5051206;28;20265;-65
2021/10/06 09:44:58;;;;;;;5.40;5.00;;;13.50;99.90;;;;;;5052299;28;20223;-64
2021/10/06 09:47:24;;;;;;;5.83;5.47;;;13.10;99.90;;;;;;5071065;28;20590;-65
2021/10/06 09:49:55;;;;;;;6.43;5.93;;;12.70;99.90;;;;;;5069818;28;20224;-63
2021/10/06 09:52:23;;;;;;;7.07;6.33;;;12.40;99.90;;;;;;5050981;28;20199;-64
2021/10/06 09:54:51;;;;;;;6.83;5.60;;;12.20;99.90;;;;;;5051425;28;20688;-65
2021/10/06 09:57:36;;;;;;;5.93;5.40;;;12.00;99.90;;;;;;5070959;28;20208;-65
2021/10/06 10:00:17;;;;;;;7.27;6.00;;;12.00;99.90;;;;;;5069533;28;20174;-63
2021/10/06 10:02:43;;;;;;;6.30;5.50;;;12.00;99.90;;;;;;5051241;28;20175;-66
2021/10/06 10:05:10;;;;;;;5.87;5.40;;;11.90;99.90;;;;;;5051968;28;20695;-64
2021/10/06 10:07:36;;;;;;;7.03;6.33;;;12.00;99.90;;;;;;5051961;28;20679;-65
2021/10/06 10:10:04;;;;;;;6.60;6.00;;;12.00;99.90;;;;;;5050877;28;20181;-65
2021/10/06 10:12:30;;;;;;;6.13;5.53;;;12.00;99.90;;;;;;5069633;28;20271;-63
2021/10/06 10:14:56;;;;;;;6.07;5.47;;;12.00;99.90;;;;;;5070997;28;20597;-64
2021/10/06 10:17:23;;;;;;;8.57;6.70;;;12.00;99.90;;;;;;5054506;28;20229;-66
2021/10/06 10:19:57;;;;;;;6.60;6.00;;;12.10;99.90;;;;;;5062590;28;20614;-64
2021/10/06 10:22:26;;;;;;;9.03;6.37;;;12.10;99.90;;;;;;5065199;28;20266;-64
2021/10/06 10:24:52;;;;;;;6.40;5.90;;;12.20;99.90;;;;;;5073003;28;20790;-65
2021/10/06 10:27:23;;;;;;;6.83;6.30;;;12.30;99.90;;;;;;5057517;28;20547;-63
2021/10/06 10:30:03;;;;;;;7.80;5.80;;;12.50;99.90;;;;;;5053643;28;20240;-62
2021/10/06 10:32:43;;;;;;;6.47;6.00;;;12.50;99.90;;;;;;5071468;28;20216;-65
2021/10/06 10:35:14;;;;;;;7.07;6.23;;;12.60;99.90;;;;;;5074271;28;20294;-65
2021/10/06 10:37:45;;;;;;;6.67;6.07;;;12.60;99.90;;;;;;5055969;28;20196;-65
2021/10/06 10:40:32;;;;;;;5.53;5.23;;;12.80;99.90;;;;;;5064034;28;20257;-63
2021/10/06 10:43:08;;;;;;;5.77;5.30;;;12.80;99.90;;;;;;5074275;28;20178;-65
2021/10/06 10:45:49;;;;;;;5.53;5.13;;;12.80;99.90;;;;;;5060880;28;20261;-64
2021/10/06 10:48:14;;;;;;;5.53;5.13;;;12.90;99.90;;;;;;5054084;28;20217;-65
2021/10/06 10:50:43;;;;;;;6.30;5.70;;;12.70;99.90;;;;;;5066593;28;20209;-63
2021/10/06 10:53:10;;;;;;;5.83;5.30;;;12.70;99.90;;;;;;5073886;28;20292;-65
2021/10/06 10:56:11;;;;;;;5.53;5.07;;;12.70;99.90;;;;;;5061721;28;20217;-64
2021/10/06 10:58:40;;;;;;;6.50;6.00;;;12.80;99.90;;;;;;5031819;28;20179;-65
2021/10/06 11:01:12;;;;;;;5.80;5.40;;;12.80;99.90;;;;;;5064191;28;20310;-66
2021/10/06 11:04:19;;;;;;;6.37;5.87;;;12.80;99.90;;;;;;5072624;28;20260;-65
2021/10/06 11:06:53;;;;;;;5.90;5.50;;;12.70;99.90;;;;;;4991701;28;20869;-66
2021/10/06 11:09:31;;;;;;;6.00;5.60;;;12.70;99.90;;;;;;5046912;28;20568;-65
2021/10/06 11:12:05;;;;;;;5.93;5.43;;;12.60;99.90;;;;;;5065677;28;20185;-63
2021/10/06 11:14:39;;;;;;;7.40;6.17;;;12.60;99.90;;;;;;5073365;28;20288;-64
2021/10/06 11:17:14;;;;;;;6.33;5.80;;;12.60;99.90;;;;;;5060842;28;20539;-65
2021/10/06 11:19:48;;;;;;;7.00;6.23;;;12.50;99.90;;;;;;5060015;28;20174;-65
2021/10/06 11:22:24;;;;;;;7.67;7.00;;;12.50;99.90;;;;;;5073397;28;20181;-64
2021/10/06 11:24:55;;;;;;;8.00;7.37;;;12.50;99.90;;;;;;5065544;28;20660;-65
2021/10/06 11:27:22;;;;;;;9.00;8.10;;;12.50;99.90;;;;;;5052498;28;20167;-65
2021/10/06 11:29:50;;;;;;;8.00;7.30;;;12.40;99.90;;;;;;5055252;28;20243;-63
2021/10/06 11:32:16;;;;;;;7.50;6.90;;;12.50;99.90;;;;;;5062390;28;20235;-66
2021/10/06 11:34:45;;;;;;;7.70;6.90;;;12.50;99.90;;;;;;5053322;28;20202;-65
2021/10/06 11:37:18;;;;;;;6.90;6.30;;;12.60;99.90;;;;;;5057516;28;20206;-65
2021/10/06 11:39:44;;;;;;;6.40;5.83;;;12.60;99.90;;;;;;5072857;28;20178;-65
2021/10/06 11:42:10;;;;;;;10.90;5.77;;;12.70;99.90;;;;;;5069213;28;20290;-65
2021/10/06 11:44:36;;;;;;;6.83;6.20;;;12.70;99.90;;;;;;5053050;28;20195;-66
2021/10/06 11:47:08;;;;;;;6.30;5.90;;;12.70;99.90;;;;;;5068032;28;20576;-65
2021/10/06 11:49:36;;;;;;;6.00;5.60;;;12.70;99.90;;;;;;5052555;28;20264;-65
2021/10/06 11:52:03;;;;;;;7.03;6.43;;;12.60;99.90;;;;;;5053757;28;20175;-65
2021/10/06 11:54:29;;;;;;;6.70;6.20;;;12.60;99.90;;;;;;5056321;28;20242;-65
2021/10/06 11:56:59;;;;;;;6.60;6.00;;;12.60;99.90;;;;;;5058327;28;20641;-65
2021/10/06 11:59:27;;;;;;;7.13;6.57;;;12.60;99.90;;;;;;5072229;28;20174;-64
2021/10/06 12:02:07;;;;;;;6.40;5.90;;;12.70;99.90;;;;;;5067302;28;20173;-65
2021/10/06 12:04:35;;;;;;;6.23;5.83;;;12.70;99.90;;;;;;5051024;28;20265;-65
2021/10/06 12:07:02;;;;;;;6.10;5.70;;;12.90;99.90;;;;;;5057992;28;20205;-63
2021/10/06 12:09:33;;;;;;;6.73;6.17;;;12.90;99.90;;;;;;5072125;28;20181;-63
2021/10/06 12:11:59;;;;;;;7.00;6.50;;;13.00;99.90;;;;;;5067738;28;20189;-63
2021/10/06 12:14:28;;;;;;;6.70;6.00;;;13.20;99.90;;;;;;5052320;28;20652;-64
2021/10/06 12:16:59;;;;;;;7.47;6.83;;;13.30;99.90;;;;;;5055596;28;20731;-62
2021/10/06 12:19:25;;;;;;;7.17;6.67;;;13.40;99.90;;;;;;5071927;28;20174;-63
2021/10/06 12:21:52;;;;;;;7.00;6.40;;;13.70;99.90;;;;;;5069980;28;20170;-63
2021/10/06 12:24:20;;;;;;;6.37;5.97;;;13.80;99.90;;;;;;5052272;28;20191;-63
2021/10/06 12:26:47;;;;;;;6.80;6.37;;;13.90;99.90;;;;;;5052786;28;20229;-63
2021/10/06 12:29:14;;;;;;;7.10;6.60;;;13.90;99.90;;;;;;5070687;28;20574;-62
2021/10/06 12:31:42;;;;;;;7.60;7.10;;;13.90;99.90;;;;;;5072241;28;20218;-63
2021/10/06 12:34:07;;;;;;;6.50;6.10;;;14.00;99.90;;;;;;5052453;28;20218;-62
2021/10/06 12:36:33;;;;;;;6.37;5.83;;;14.00;99.90;;;;;;5052168;28;20572;-64
2021/10/06 12:38:59;;;;;;;6.70;6.30;;;14.00;99.90;;;;;;5068513;28;20643;-63
2021/10/06 12:41:40;;;;;;;6.97;6.43;;;14.20;99.90;;;;;;5071783;28;20830;-63
2021/10/06 12:44:32;;;;;;;9.30;8.40;;;14.20;99.90;;;;;;5053391;28;20214;-65
2021/10/06 12:46:58;;;;;;;7.33;6.63;;;14.10;99.90;;;;;;5051893;28;20690;-64